sensor_id;sensor_type;location;lat;lon;timestamp;temperature;humidity
42019;DHT22;27703;51.980;5.848;2022-07-29T00:02:09;19.70;74.80
42019;DHT22;27703;51.980;5.848;2022-07-29T00:04:36;19.70;74.80
42019;DHT22;27703;51.980;5.848;2022-07-29T00:07:02;19.70;74.90
42019;DHT22;27703;51.980;5.848;2022-07-29T00:09:28;19.70;74.90
42019;DHT22;27703;51.980;5.848;2022-07-29T00:11:54;19.70;75.00
42019;DHT22;27703;51.980;5.848;2022-07-29T00:14:21;19.70;75.20
42019;DHT22;27703;51.980;5.848;2022-07-29T00:16:47;19.60;75.20
42019;DHT22;27703;51.980;5.848;2022-07-29T00:19:12;19.60;75.30
42019;DHT22;27703;51.980;5.848;2022-07-29T00:21:38;19.60;75.30
42019;DHT22;27703;51.980;5.848;2022-07-29T00:24:03;19.60;75.50
42019;DHT22;27703;51.980;5.848;2022-07-29T00:26:29;19.60;75.60
42019;DHT22;27703;51.980;5.848;2022-07-29T00:28:58;19.50;75.70
42019;DHT22;27703;51.980;5.848;2022-07-29T00:31:24;19.50;75.90
42019;DHT22;27703;51.980;5.848;2022-07-29T00:33:49;19.50;76.00
42019;DHT22;27703;51.980;5.848;2022-07-29T00:36:15;19.40;76.00
42019;DHT22;27703;51.980;5.848;2022-07-29T00:38:40;19.40;76.10
42019;DHT22;27703;51.980;5.848;2022-07-29T00:41:09;19.40;76.20
42019;DHT22;27703;51.980;5.848;2022-07-29T00:43:35;19.40;76.30
42019;DHT22;27703;51.980;5.848;2022-07-29T00:46:00;19.30;76.30
42019;DHT22;27703;51.980;5.848;2022-07-29T00:48:26;19.30;76.50
42019;DHT22;27703;51.980;5.848;2022-07-29T00:50:51;19.30;76.50
42019;DHT22;27703;51.980;5.848;2022-07-29T00:53:17;19.30;76.60
42019;DHT22;27703;51.980;5.848;2022-07-29T00:55:42;19.30;76.50
42019;DHT22;27703;51.980;5.848;2022-07-29T00:58:08;19.30;76.60
42019;DHT22;27703;51.980;5.848;2022-07-29T01:00:34;19.30;76.70
42019;DHT22;27703;51.980;5.848;2022-07-29T01:03:00;19.20;76.70
42019;DHT22;27703;51.980;5.848;2022-07-29T01:05:26;19.20;77.00
42019;DHT22;27703;51.980;5.848;2022-07-29T01:07:54;19.20;77.20
42019;DHT22;27703;51.980;5.848;2022-07-29T01:10:20;19.10;77.20
42019;DHT22;27703;51.980;5.848;2022-07-29T01:12:49;19.10;77.30
42019;DHT22;27703;51.980;5.848;2022-07-29T01:15:15;19.10;77.30
42019;DHT22;27703;51.980;5.848;2022-07-29T01:17:46;19.10;77.30
42019;DHT22;27703;51.980;5.848;2022-07-29T01:23:32;19.10;77.30
42019;DHT22;27703;51.980;5.848;2022-07-29T01:26:13;19.10;77.30
42019;DHT22;27703;51.980;5.848;2022-07-29T01:31:47;19.10;77.30
42019;DHT22;27703;51.980;5.848;2022-07-29T01:34:48;19.10;77.40
42019;DHT22;27703;51.980;5.848;2022-07-29T01:37:29;19.10;77.50
42019;DHT22;27703;51.980;5.848;2022-07-29T01:39:58;19.10;77.60
42019;DHT22;27703;51.980;5.848;2022-07-29T01:42:36;19.00;78.00
42019;DHT22;27703;51.980;5.848;2022-07-29T01:45:08;19.10;77.90
42019;DHT22;27703;51.980;5.848;2022-07-29T01:47:44;19.00;78.00
42019;DHT22;27703;51.980;5.848;2022-07-29T01:50:14;19.00;78.10
42019;DHT22;27703;51.980;5.848;2022-07-29T01:52:54;19.00;78.20
42019;DHT22;27703;51.980;5.848;2022-07-29T01:55:26;19.00;78.10
42019;DHT22;27703;51.980;5.848;2022-07-29T01:57:54;19.00;78.20
42019;DHT22;27703;51.980;5.848;2022-07-29T02:00:22;19.00;78.30
42019;DHT22;27703;51.980;5.848;2022-07-29T02:02:48;19.00;78.40
42019;DHT22;27703;51.980;5.848;2022-07-29T02:05:17;19.00;78.70
42019;DHT22;27703;51.980;5.848;2022-07-29T02:07:46;18.90;78.90
42019;DHT22;27703;51.980;5.848;2022-07-29T02:10:13;18.90;79.30
42019;DHT22;27703;51.980;5.848;2022-07-29T02:12:40;18.80;79.80
42019;DHT22;27703;51.980;5.848;2022-07-29T02:15:08;18.70;80.10
42019;DHT22;27703;51.980;5.848;2022-07-29T02:17:45;18.70;81.00
42019;DHT22;27703;51.980;5.848;2022-07-29T02:20:13;18.70;80.80
42019;DHT22;27703;51.980;5.848;2022-07-29T02:22:39;18.60;80.90
42019;DHT22;27703;51.980;5.848;2022-07-29T02:25:07;18.60;81.10
42019;DHT22;27703;51.980;5.848;2022-07-29T02:27:34;18.60;81.40
42019;DHT22;27703;51.980;5.848;2022-07-29T02:30:02;18.60;81.70
42019;DHT22;27703;51.980;5.848;2022-07-29T02:32:29;18.60;82.00
42019;DHT22;27703;51.980;5.848;2022-07-29T02:34:56;18.50;82.20
42019;DHT22;27703;51.980;5.848;2022-07-29T02:37:23;18.50;82.40
42019;DHT22;27703;51.980;5.848;2022-07-29T02:39:52;18.50;82.60
42019;DHT22;27703;51.980;5.848;2022-07-29T02:42:19;18.40;82.80
42019;DHT22;27703;51.980;5.848;2022-07-29T02:44:46;18.40;83.00
42019;DHT22;27703;51.980;5.848;2022-07-29T02:50:06;18.40;83.40
42019;DHT22;27703;51.980;5.848;2022-07-29T02:52:52;18.40;83.50
42019;DHT22;27703;51.980;5.848;2022-07-29T02:55:25;18.40;83.70
42019;DHT22;27703;51.980;5.848;2022-07-29T03:00:38;18.30;84.10
42019;DHT22;27703;51.980;5.848;2022-07-29T03:03:13;18.30;84.40
42019;DHT22;27703;51.980;5.848;2022-07-29T03:05:40;18.20;84.60
42019;DHT22;27703;51.980;5.848;2022-07-29T03:08:07;18.10;84.80
42019;DHT22;27703;51.980;5.848;2022-07-29T03:10:34;18.10;85.10
42019;DHT22;27703;51.980;5.848;2022-07-29T03:13:00;18.00;85.40
42019;DHT22;27703;51.980;5.848;2022-07-29T03:15:27;18.00;85.80
42019;DHT22;27703;51.980;5.848;2022-07-29T03:17:53;17.90;86.10
42019;DHT22;27703;51.980;5.848;2022-07-29T03:20:19;17.90;86.40
42019;DHT22;27703;51.980;5.848;2022-07-29T03:22:45;17.80;86.50
42019;DHT22;27703;51.980;5.848;2022-07-29T03:25:16;17.80;86.70
42019;DHT22;27703;51.980;5.848;2022-07-29T03:27:43;17.70;86.90
42019;DHT22;27703;51.980;5.848;2022-07-29T03:30:09;17.60;87.10
42019;DHT22;27703;51.980;5.848;2022-07-29T03:32:36;17.60;87.20
42019;DHT22;27703;51.980;5.848;2022-07-29T03:35:02;17.60;87.50
42019;DHT22;27703;51.980;5.848;2022-07-29T03:37:27;17.50;87.60
42019;DHT22;27703;51.980;5.848;2022-07-29T03:39:56;17.50;87.80
42019;DHT22;27703;51.980;5.848;2022-07-29T03:42:25;17.50;87.90
42019;DHT22;27703;51.980;5.848;2022-07-29T03:44:52;17.40;88.30
42019;DHT22;27703;51.980;5.848;2022-07-29T03:47:23;17.30;88.40
42019;DHT22;27703;51.980;5.848;2022-07-29T03:49:52;17.40;88.60
42019;DHT22;27703;51.980;5.848;2022-07-29T03:52:19;17.30;88.60
42019;DHT22;27703;51.980;5.848;2022-07-29T03:54:45;17.30;88.90
42019;DHT22;27703;51.980;5.848;2022-07-29T03:57:11;17.20;89.10
42019;DHT22;27703;51.980;5.848;2022-07-29T03:59:38;17.20;89.00
42019;DHT22;27703;51.980;5.848;2022-07-29T04:02:05;17.20;89.00
42019;DHT22;27703;51.980;5.848;2022-07-29T04:04:36;17.20;89.20
42019;DHT22;27703;51.980;5.848;2022-07-29T04:07:03;17.20;89.10
42019;DHT22;27703;51.980;5.848;2022-07-29T04:09:29;17.20;89.20
42019;DHT22;27703;51.980;5.848;2022-07-29T04:11:55;17.10;89.20
42019;DHT22;27703;51.980;5.848;2022-07-29T04:14:20;17.10;89.20
42019;DHT22;27703;51.980;5.848;2022-07-29T04:16:46;17.10;89.20
42019;DHT22;27703;51.980;5.848;2022-07-29T04:19:12;17.10;89.30
42019;DHT22;27703;51.980;5.848;2022-07-29T04:21:41;17.10;89.40
42019;DHT22;27703;51.980;5.848;2022-07-29T04:24:07;17.00;90.00
42019;DHT22;27703;51.980;5.848;2022-07-29T04:26:34;16.90;90.40
42019;DHT22;27703;51.980;5.848;2022-07-29T04:29:00;16.60;90.90
42019;DHT22;27703;51.980;5.848;2022-07-29T04:31:25;16.30;91.10
42019;DHT22;27703;51.980;5.848;2022-07-29T04:33:51;16.30;91.20
42019;DHT22;27703;51.980;5.848;2022-07-29T04:36:16;16.50;91.10
42019;DHT22;27703;51.980;5.848;2022-07-29T04:38:42;16.50;90.90
42019;DHT22;27703;51.980;5.848;2022-07-29T04:41:08;16.60;90.90
42019;DHT22;27703;51.980;5.848;2022-07-29T04:43:34;16.60;90.80
42019;DHT22;27703;51.980;5.848;2022-07-29T04:46:00;16.70;90.80
42019;DHT22;27703;51.980;5.848;2022-07-29T04:48:26;16.80;90.70
42019;DHT22;27703;51.980;5.848;2022-07-29T04:50:52;16.80;90.70
42019;DHT22;27703;51.980;5.848;2022-07-29T04:53:17;16.80;90.60
42019;DHT22;27703;51.980;5.848;2022-07-29T04:55:44;16.90;90.50
42019;DHT22;27703;51.980;5.848;2022-07-29T04:58:10;16.90;90.50
42019;DHT22;27703;51.980;5.848;2022-07-29T05:00:36;16.90;90.50
42019;DHT22;27703;51.980;5.848;2022-07-29T05:03:01;16.90;90.60
42019;DHT22;27703;51.980;5.848;2022-07-29T05:05:27;16.90;90.60
42019;DHT22;27703;51.980;5.848;2022-07-29T05:07:52;16.90;90.60
42019;DHT22;27703;51.980;5.848;2022-07-29T05:10:18;16.90;90.60
42019;DHT22;27703;51.980;5.848;2022-07-29T05:12:43;17.00;90.60
42019;DHT22;27703;51.980;5.848;2022-07-29T05:15:09;17.00;90.50
42019;DHT22;27703;51.980;5.848;2022-07-29T05:17:35;17.00;90.40
42019;DHT22;27703;51.980;5.848;2022-07-29T05:20:00;17.00;90.50
42019;DHT22;27703;51.980;5.848;2022-07-29T05:22:26;17.00;90.40
42019;DHT22;27703;51.980;5.848;2022-07-29T05:24:51;17.00;90.50
42019;DHT22;27703;51.980;5.848;2022-07-29T05:27:17;17.00;90.40
42019;DHT22;27703;51.980;5.848;2022-07-29T05:29:42;17.00;90.40
42019;DHT22;27703;51.980;5.848;2022-07-29T05:32:08;17.00;90.40
42019;DHT22;27703;51.980;5.848;2022-07-29T05:34:33;17.00;90.50
42019;DHT22;27703;51.980;5.848;2022-07-29T05:36:59;17.00;90.50
42019;DHT22;27703;51.980;5.848;2022-07-29T05:39:24;17.00;90.60
42019;DHT22;27703;51.980;5.848;2022-07-29T05:41:50;17.00;90.60
42019;DHT22;27703;51.980;5.848;2022-07-29T05:44:15;17.00;90.60
42019;DHT22;27703;51.980;5.848;2022-07-29T05:46:41;17.00;90.60
42019;DHT22;27703;51.980;5.848;2022-07-29T05:49:06;17.00;90.70
42019;DHT22;27703;51.980;5.848;2022-07-29T05:51:35;17.00;90.70
42019;DHT22;27703;51.980;5.848;2022-07-29T05:54:01;17.00;90.70
42019;DHT22;27703;51.980;5.848;2022-07-29T05:56:27;17.00;90.70
42019;DHT22;27703;51.980;5.848;2022-07-29T05:58:52;17.00;90.70
42019;DHT22;27703;51.980;5.848;2022-07-29T06:01:18;17.10;90.70
42019;DHT22;27703;51.980;5.848;2022-07-29T06:03:44;17.00;90.70
42019;DHT22;27703;51.980;5.848;2022-07-29T06:06:10;17.10;90.80
42019;DHT22;27703;51.980;5.848;2022-07-29T06:08:36;17.10;90.80
42019;DHT22;27703;51.980;5.848;2022-07-29T06:11:02;17.20;90.80
42019;DHT22;27703;51.980;5.848;2022-07-29T06:13:28;17.20;90.80
42019;DHT22;27703;51.980;5.848;2022-07-29T06:15:54;17.20;90.70
42019;DHT22;27703;51.980;5.848;2022-07-29T06:18:20;17.30;90.70
42019;DHT22;27703;51.980;5.848;2022-07-29T06:20:51;17.30;90.70
42019;DHT22;27703;51.980;5.848;2022-07-29T06:23:18;17.40;90.60
42019;DHT22;27703;51.980;5.848;2022-07-29T06:25:44;17.40;90.50
42019;DHT22;27703;51.980;5.848;2022-07-29T06:28:09;17.50;90.60
42019;DHT22;27703;51.980;5.848;2022-07-29T06:30:35;17.50;90.60
42019;DHT22;27703;51.980;5.848;2022-07-29T06:33:01;17.50;90.60
42019;DHT22;27703;51.980;5.848;2022-07-29T06:35:27;17.50;90.60
42019;DHT22;27703;51.980;5.848;2022-07-29T06:37:53;17.60;90.60
42019;DHT22;27703;51.980;5.848;2022-07-29T06:40:19;17.70;90.50
42019;DHT22;27703;51.980;5.848;2022-07-29T06:43:03;17.70;90.50
42019;DHT22;27703;51.980;5.848;2022-07-29T06:45:28;17.80;90.50
42019;DHT22;27703;51.980;5.848;2022-07-29T06:47:54;17.80;90.40
42019;DHT22;27703;51.980;5.848;2022-07-29T06:50:19;17.90;90.40
42019;DHT22;27703;51.980;5.848;2022-07-29T06:52:45;18.00;90.50
42019;DHT22;27703;51.980;5.848;2022-07-29T06:55:10;18.00;90.30
42019;DHT22;27703;51.980;5.848;2022-07-29T06:57:36;18.10;90.40
42019;DHT22;27703;51.980;5.848;2022-07-29T07:00:02;18.20;90.30
42019;DHT22;27703;51.980;5.848;2022-07-29T07:02:29;18.30;90.10
42019;DHT22;27703;51.980;5.848;2022-07-29T07:04:55;18.30;89.90
42019;DHT22;27703;51.980;5.848;2022-07-29T07:07:20;18.40;89.80
42019;DHT22;27703;51.980;5.848;2022-07-29T07:09:46;18.40;89.70
42019;DHT22;27703;51.980;5.848;2022-07-29T07:12:11;18.40;89.70
42019;DHT22;27703;51.980;5.848;2022-07-29T07:14:37;18.40;89.70
42019;DHT22;27703;51.980;5.848;2022-07-29T07:17:02;18.50;90.00
42019;DHT22;27703;51.980;5.848;2022-07-29T07:19:29;18.60;90.10
42019;DHT22;27703;51.980;5.848;2022-07-29T07:21:55;18.60;90.00
42019;DHT22;27703;51.980;5.848;2022-07-29T07:24:20;18.70;90.00
42019;DHT22;27703;51.980;5.848;2022-07-29T07:26:46;18.70;90.00
42019;DHT22;27703;51.980;5.848;2022-07-29T07:29:11;18.80;90.00
42019;DHT22;27703;51.980;5.848;2022-07-29T07:31:37;18.80;90.00
42019;DHT22;27703;51.980;5.848;2022-07-29T07:34:03;18.80;90.00
42019;DHT22;27703;51.980;5.848;2022-07-29T07:36:29;18.80;90.10
42019;DHT22;27703;51.980;5.848;2022-07-29T07:38:54;18.80;89.90
42019;DHT22;27703;51.980;5.848;2022-07-29T07:41:20;18.80;90.00
42019;DHT22;27703;51.980;5.848;2022-07-29T07:43:46;18.70;90.10
42019;DHT22;27703;51.980;5.848;2022-07-29T07:46:12;18.70;90.10
42019;DHT22;27703;51.980;5.848;2022-07-29T07:48:38;18.80;90.10
42019;DHT22;27703;51.980;5.848;2022-07-29T07:51:03;18.80;90.20
42019;DHT22;27703;51.980;5.848;2022-07-29T07:53:29;18.80;90.20
42019;DHT22;27703;51.980;5.848;2022-07-29T07:55:55;18.80;90.30
42019;DHT22;27703;51.980;5.848;2022-07-29T07:58:20;18.90;90.20
42019;DHT22;27703;51.980;5.848;2022-07-29T08:00:46;18.90;90.20
42019;DHT22;27703;51.980;5.848;2022-07-29T08:03:12;19.00;90.20
42019;DHT22;27703;51.980;5.848;2022-07-29T08:05:39;19.00;90.10
42019;DHT22;27703;51.980;5.848;2022-07-29T08:08:05;19.00;90.00
42019;DHT22;27703;51.980;5.848;2022-07-29T08:10:30;19.10;89.70
42019;DHT22;27703;51.980;5.848;2022-07-29T08:13:14;19.10;89.80
42019;DHT22;27703;51.980;5.848;2022-07-29T08:15:40;19.10;89.40
42019;DHT22;27703;51.980;5.848;2022-07-29T08:18:11;19.20;89.30
42019;DHT22;27703;51.980;5.848;2022-07-29T08:20:37;19.20;89.50
42019;DHT22;27703;51.980;5.848;2022-07-29T08:23:04;19.10;89.80
42019;DHT22;27703;51.980;5.848;2022-07-29T08:25:32;19.10;89.80
42019;DHT22;27703;51.980;5.848;2022-07-29T08:27:58;19.20;89.80
42019;DHT22;27703;51.980;5.848;2022-07-29T08:30:24;19.20;89.80
42019;DHT22;27703;51.980;5.848;2022-07-29T08:32:50;19.20;89.90
42019;DHT22;27703;51.980;5.848;2022-07-29T08:35:18;19.20;90.00
42019;DHT22;27703;51.980;5.848;2022-07-29T08:37:44;19.10;90.10
42019;DHT22;27703;51.980;5.848;2022-07-29T08:40:10;19.20;90.00
42019;DHT22;27703;51.980;5.848;2022-07-29T08:42:36;19.20;90.00
42019;DHT22;27703;51.980;5.848;2022-07-29T08:45:03;19.20;90.00
42019;DHT22;27703;51.980;5.848;2022-07-29T08:47:29;19.30;90.00
42019;DHT22;27703;51.980;5.848;2022-07-29T08:49:55;19.30;90.00
42019;DHT22;27703;51.980;5.848;2022-07-29T08:52:21;19.40;90.00
42019;DHT22;27703;51.980;5.848;2022-07-29T08:54:51;19.50;89.80
42019;DHT22;27703;51.980;5.848;2022-07-29T08:57:18;19.50;90.00
42019;DHT22;27703;51.980;5.848;2022-07-29T08:59:46;19.50;89.90
42019;DHT22;27703;51.980;5.848;2022-07-29T09:02:19;19.50;90.00
42019;DHT22;27703;51.980;5.848;2022-07-29T09:04:45;19.60;90.10
42019;DHT22;27703;51.980;5.848;2022-07-29T09:07:15;19.60;90.00
42019;DHT22;27703;51.980;5.848;2022-07-29T09:09:41;19.70;90.10
42019;DHT22;27703;51.980;5.848;2022-07-29T09:12:08;19.60;90.00
42019;DHT22;27703;51.980;5.848;2022-07-29T09:14:34;19.70;90.10
42019;DHT22;27703;51.980;5.848;2022-07-29T09:16:59;19.80;90.10
42019;DHT22;27703;51.980;5.848;2022-07-29T09:21:54;19.80;90.00
42019;DHT22;27703;51.980;5.848;2022-07-29T09:24:23;19.80;90.00
42019;DHT22;27703;51.980;5.848;2022-07-29T09:26:49;19.80;90.10
42019;DHT22;27703;51.980;5.848;2022-07-29T09:29:19;19.70;90.10
42019;DHT22;27703;51.980;5.848;2022-07-29T09:31:47;19.70;90.20
42019;DHT22;27703;51.980;5.848;2022-07-29T09:34:15;19.70;90.30
42019;DHT22;27703;51.980;5.848;2022-07-29T09:36:43;19.60;90.30
42019;DHT22;27703;51.980;5.848;2022-07-29T09:39:09;19.60;90.40
42019;DHT22;27703;51.980;5.848;2022-07-29T09:41:48;19.50;90.50
42019;DHT22;27703;51.980;5.848;2022-07-29T09:44:14;19.60;90.60
42019;DHT22;27703;51.980;5.848;2022-07-29T09:46:52;19.60;90.60
42019;DHT22;27703;51.980;5.848;2022-07-29T09:49:17;19.60;90.50
42019;DHT22;27703;51.980;5.848;2022-07-29T09:51:43;19.70;90.50
42019;DHT22;27703;51.980;5.848;2022-07-29T09:54:27;19.80;90.40
42019;DHT22;27703;51.980;5.848;2022-07-29T09:56:54;20.00;90.20
42019;DHT22;27703;51.980;5.848;2022-07-29T09:59:21;20.10;90.00
42019;DHT22;27703;51.980;5.848;2022-07-29T10:01:49;20.20;89.90
42019;DHT22;27703;51.980;5.848;2022-07-29T10:04:15;20.40;89.70
42019;DHT22;27703;51.980;5.848;2022-07-29T10:07:01;20.50;89.40
42019;DHT22;27703;51.980;5.848;2022-07-29T10:09:27;20.70;88.70
42019;DHT22;27703;51.980;5.848;2022-07-29T10:12:07;20.90;88.50
42019;DHT22;27703;51.980;5.848;2022-07-29T10:14:34;21.00;88.10
42019;DHT22;27703;51.980;5.848;2022-07-29T10:17:00;21.20;87.90
42019;DHT22;27703;51.980;5.848;2022-07-29T10:19:31;21.40;87.60
42019;DHT22;27703;51.980;5.848;2022-07-29T10:22:02;21.60;87.40
42019;DHT22;27703;51.980;5.848;2022-07-29T10:24:30;21.80;87.10
42019;DHT22;27703;51.980;5.848;2022-07-29T10:26:56;21.90;86.60
42019;DHT22;27703;51.980;5.848;2022-07-29T10:29:23;21.90;86.60
42019;DHT22;27703;51.980;5.848;2022-07-29T10:40:46;21.90;86.30
42019;DHT22;27703;51.980;5.848;2022-07-29T10:43:37;22.00;86.30
42019;DHT22;27703;51.980;5.848;2022-07-29T10:46:05;22.00;86.30
42019;DHT22;27703;51.980;5.848;2022-07-29T10:48:31;21.90;86.40
42019;DHT22;27703;51.980;5.848;2022-07-29T10:51:04;22.00;86.40
42019;DHT22;27703;51.980;5.848;2022-07-29T10:53:47;22.00;86.30
42019;DHT22;27703;51.980;5.848;2022-07-29T10:56:30;22.10;86.30
42019;DHT22;27703;51.980;5.848;2022-07-29T11:01:43;22.20;86.00
42019;DHT22;27703;51.980;5.848;2022-07-29T11:04:09;22.30;85.70
42019;DHT22;27703;51.980;5.848;2022-07-29T11:09:24;22.40;85.10
42019;DHT22;27703;51.980;5.848;2022-07-29T11:11:49;22.50;84.70
42019;DHT22;27703;51.980;5.848;2022-07-29T11:14:15;22.50;84.30
42019;DHT22;27703;51.980;5.848;2022-07-29T11:17:05;22.60;84.30
42019;DHT22;27703;51.980;5.848;2022-07-29T11:19:31;22.80;84.30
42019;DHT22;27703;51.980;5.848;2022-07-29T11:21:57;23.00;84.00
42019;DHT22;27703;51.980;5.848;2022-07-29T11:24:26;23.10;83.70
42019;DHT22;27703;51.980;5.848;2022-07-29T11:27:16;23.40;82.50
42019;DHT22;27703;51.980;5.848;2022-07-29T11:29:53;23.60;81.30
42019;DHT22;27703;51.980;5.848;2022-07-29T11:32:20;23.80;81.00
42019;DHT22;27703;51.980;5.848;2022-07-29T11:35:10;24.10;79.70
42019;DHT22;27703;51.980;5.848;2022-07-29T11:37:36;24.20;79.60
42019;DHT22;27703;51.980;5.848;2022-07-29T11:45:13;24.70;78.90
42019;DHT22;27703;51.980;5.848;2022-07-29T11:50:27;24.80;78.50
42019;DHT22;27703;51.980;5.848;2022-07-29T11:52:52;24.80;78.60
42019;DHT22;27703;51.980;5.848;2022-07-29T11:55:20;24.90;78.50
42019;DHT22;27703;51.980;5.848;2022-07-29T11:58:00;25.00;78.20
42019;DHT22;27703;51.980;5.848;2022-07-29T12:02:54;25.20;77.90
42019;DHT22;27703;51.980;5.848;2022-07-29T12:05:20;25.30;77.70
42019;DHT22;27703;51.980;5.848;2022-07-29T12:07:47;25.50;77.50
42019;DHT22;27703;51.980;5.848;2022-07-29T12:10:13;25.60;77.40
42019;DHT22;27703;51.980;5.848;2022-07-29T12:12:38;25.70;76.80
42019;DHT22;27703;51.980;5.848;2022-07-29T12:15:18;25.80;76.70
42019;DHT22;27703;51.980;5.848;2022-07-29T12:17:46;25.80;76.60
42019;DHT22;27703;51.980;5.848;2022-07-29T12:20:12;25.90;76.50
42019;DHT22;27703;51.980;5.848;2022-07-29T12:22:40;25.90;76.00
42019;DHT22;27703;51.980;5.848;2022-07-29T12:25:11;25.90;75.30
42019;DHT22;27703;51.980;5.848;2022-07-29T12:27:39;25.80;75.00
42019;DHT22;27703;51.980;5.848;2022-07-29T12:30:10;25.70;75.30
42019;DHT22;27703;51.980;5.848;2022-07-29T12:32:40;25.60;75.60
42019;DHT22;27703;51.980;5.848;2022-07-29T12:37:33;25.70;75.00
42019;DHT22;27703;51.980;5.848;2022-07-29T12:40:01;25.60;74.70
42019;DHT22;27703;51.980;5.848;2022-07-29T12:42:29;25.70;75.00
42019;DHT22;27703;51.980;5.848;2022-07-29T12:44:54;25.70;74.70
42019;DHT22;27703;51.980;5.848;2022-07-29T12:47:20;25.70;74.40
42019;DHT22;27703;51.980;5.848;2022-07-29T12:49:46;25.70;74.30
42019;DHT22;27703;51.980;5.848;2022-07-29T12:52:32;25.80;74.50
42019;DHT22;27703;51.980;5.848;2022-07-29T12:54:58;25.80;74.00
42019;DHT22;27703;51.980;5.848;2022-07-29T12:57:25;25.80;74.30
42019;DHT22;27703;51.980;5.848;2022-07-29T13:00:04;25.80;74.30
42019;DHT22;27703;51.980;5.848;2022-07-29T13:02:33;25.90;74.00
42019;DHT22;27703;51.980;5.848;2022-07-29T13:05:00;25.90;74.10
42019;DHT22;27703;51.980;5.848;2022-07-29T13:07:29;25.90;74.10
42019;DHT22;27703;51.980;5.848;2022-07-29T13:10:13;26.10;74.20
42019;DHT22;27703;51.980;5.848;2022-07-29T13:13:01;26.20;73.80
42019;DHT22;27703;51.980;5.848;2022-07-29T13:15:25;26.40;73.40
42019;DHT22;27703;51.980;5.848;2022-07-29T13:17:50;26.50;73.00
42019;DHT22;27703;51.980;5.848;2022-07-29T13:20:16;26.60;73.10
42019;DHT22;27703;51.980;5.848;2022-07-29T13:22:42;26.70;73.00
42019;DHT22;27703;51.980;5.848;2022-07-29T13:25:08;26.90;72.70
42019;DHT22;27703;51.980;5.848;2022-07-29T13:27:37;27.00;72.30
42019;DHT22;27703;51.980;5.848;2022-07-29T13:30:07;27.00;71.90
42019;DHT22;27703;51.980;5.848;2022-07-29T13:32:34;27.10;71.90
42019;DHT22;27703;51.980;5.848;2022-07-29T13:35:02;27.10;71.90
42019;DHT22;27703;51.980;5.848;2022-07-29T13:37:27;27.30;71.80
42019;DHT22;27703;51.980;5.848;2022-07-29T13:39:55;27.40;71.70
42019;DHT22;27703;51.980;5.848;2022-07-29T13:42:22;27.50;71.60
42019;DHT22;27703;51.980;5.848;2022-07-29T13:44:48;27.70;71.50
42019;DHT22;27703;51.980;5.848;2022-07-29T13:47:16;27.70;71.00
42019;DHT22;27703;51.980;5.848;2022-07-29T13:49:41;27.70;70.80
42019;DHT22;27703;51.980;5.848;2022-07-29T13:52:07;27.80;70.80
42019;DHT22;27703;51.980;5.848;2022-07-29T13:54:33;28.00;70.10
42019;DHT22;27703;51.980;5.848;2022-07-29T13:57:01;28.00;69.70
42019;DHT22;27703;51.980;5.848;2022-07-29T13:59:26;27.80;68.60
42019;DHT22;27703;51.980;5.848;2022-07-29T14:01:52;27.70;69.20
42019;DHT22;27703;51.980;5.848;2022-07-29T14:04:17;27.60;69.90
42019;DHT22;27703;51.980;5.848;2022-07-29T14:06:43;27.60;69.90
42019;DHT22;27703;51.980;5.848;2022-07-29T14:09:09;27.70;69.50
42019;DHT22;27703;51.980;5.848;2022-07-29T14:11:35;27.70;69.50
42019;DHT22;27703;51.980;5.848;2022-07-29T14:14:01;27.80;69.50
42019;DHT22;27703;51.980;5.848;2022-07-29T14:16:26;28.00;69.40
42019;DHT22;27703;51.980;5.848;2022-07-29T14:18:52;28.10;69.20
42019;DHT22;27703;51.980;5.848;2022-07-29T14:21:18;28.10;68.70
42019;DHT22;27703;51.980;5.848;2022-07-29T14:23:43;27.80;68.90
42019;DHT22;27703;51.980;5.848;2022-07-29T14:26:09;27.50;69.40
42019;DHT22;27703;51.980;5.848;2022-07-29T14:28:34;27.30;69.90
42019;DHT22;27703;51.980;5.848;2022-07-29T14:31:00;27.00;70.30
42019;DHT22;27703;51.980;5.848;2022-07-29T14:33:25;26.90;70.70
42019;DHT22;27703;51.980;5.848;2022-07-29T14:35:51;26.70;71.00
42019;DHT22;27703;51.980;5.848;2022-07-29T14:38:16;26.70;71.20
42019;DHT22;27703;51.980;5.848;2022-07-29T14:40:42;26.50;71.40
42019;DHT22;27703;51.980;5.848;2022-07-29T14:43:07;26.50;71.60
42019;DHT22;27703;51.980;5.848;2022-07-29T14:45:33;26.40;71.70
42019;DHT22;27703;51.980;5.848;2022-07-29T14:47:59;26.30;71.80
42019;DHT22;27703;51.980;5.848;2022-07-29T14:50:25;26.30;71.70
42019;DHT22;27703;51.980;5.848;2022-07-29T14:52:51;26.40;71.70
42019;DHT22;27703;51.980;5.848;2022-07-29T14:55:17;26.60;71.30
42019;DHT22;27703;51.980;5.848;2022-07-29T14:57:42;26.80;70.70
42019;DHT22;27703;51.980;5.848;2022-07-29T15:00:09;26.80;70.60
42019;DHT22;27703;51.980;5.848;2022-07-29T15:02:35;26.80;70.50
42019;DHT22;27703;51.980;5.848;2022-07-29T15:05:01;26.70;70.60
42019;DHT22;27703;51.980;5.848;2022-07-29T15:07:27;26.60;70.50
42019;DHT22;27703;51.980;5.848;2022-07-29T15:09:53;26.60;70.20
42019;DHT22;27703;51.980;5.848;2022-07-29T15:12:19;26.70;69.50
42019;DHT22;27703;51.980;5.848;2022-07-29T15:14:44;26.70;68.90
42019;DHT22;27703;51.980;5.848;2022-07-29T15:17:10;26.50;69.50
42019;DHT22;27703;51.980;5.848;2022-07-29T15:19:35;26.30;69.40
42019;DHT22;27703;51.980;5.848;2022-07-29T15:22:01;26.10;69.80
42019;DHT22;27703;51.980;5.848;2022-07-29T15:24:27;26.00;69.90
42019;DHT22;27703;51.980;5.848;2022-07-29T15:26:53;25.90;70.00
42019;DHT22;27703;51.980;5.848;2022-07-29T15:29:18;25.90;70.10
42019;DHT22;27703;51.980;5.848;2022-07-29T15:31:44;25.80;70.10
42019;DHT22;27703;51.980;5.848;2022-07-29T15:34:09;25.80;70.30
42019;DHT22;27703;51.980;5.848;2022-07-29T15:36:35;25.70;70.50
42019;DHT22;27703;51.980;5.848;2022-07-29T15:39:01;25.70;70.80
42019;DHT22;27703;51.980;5.848;2022-07-29T15:41:26;25.70;71.10
42019;DHT22;27703;51.980;5.848;2022-07-29T15:43:52;25.70;71.30
42019;DHT22;27703;51.980;5.848;2022-07-29T15:46:18;25.70;71.50
42019;DHT22;27703;51.980;5.848;2022-07-29T15:49:04;25.70;71.60
42019;DHT22;27703;51.980;5.848;2022-07-29T15:51:30;25.60;71.80
42019;DHT22;27703;51.980;5.848;2022-07-29T15:53:56;25.60;72.00
42019;DHT22;27703;51.980;5.848;2022-07-29T15:56:22;25.60;72.10
42019;DHT22;27703;51.980;5.848;2022-07-29T15:58:48;25.50;72.20
42019;DHT22;27703;51.980;5.848;2022-07-29T16:01:14;25.50;72.50
42019;DHT22;27703;51.980;5.848;2022-07-29T16:03:40;25.50;72.80
42019;DHT22;27703;51.980;5.848;2022-07-29T16:06:06;25.50;72.90
42019;DHT22;27703;51.980;5.848;2022-07-29T16:08:32;25.40;73.00
42019;DHT22;27703;51.980;5.848;2022-07-29T16:10:57;25.40;73.10
42019;DHT22;27703;51.980;5.848;2022-07-29T16:13:23;25.40;73.20
42019;DHT22;27703;51.980;5.848;2022-07-29T16:15:48;25.30;73.20